createdAt,value
2018-08-03T00:00:39.136Z,21.30
2018-08-03T00:03:07.034Z,21.30
2018-08-03T00:05:34.957Z,21.30
2018-08-03T00:08:02.754Z,21.30
2018-08-03T00:10:30.675Z,21.20
2018-08-03T00:12:58.579Z,21.20
2018-08-03T00:15:26.523Z,21.10
2018-08-03T00:17:54.415Z,21.10
2018-08-03T00:20:22.268Z,21.20
2018-08-03T00:22:50.208Z,21.10
2018-08-03T00:25:18.143Z,21.10
2018-08-03T00:27:46.072Z,21.10
2018-08-03T00:30:13.945Z,21.10
2018-08-03T00:32:41.830Z,21.10
2018-08-03T00:35:09.715Z,21.00
2018-08-03T00:37:37.613Z,21.00
2018-08-03T00:40:05.574Z,21.00
2018-08-03T00:42:33.534Z,21.00
2018-08-03T00:45:01.470Z,20.90
2018-08-03T00:47:29.302Z,20.90
2018-08-03T00:49:57.197Z,20.90
2018-08-03T00:52:25.090Z,20.90
2018-08-03T00:54:52.940Z,21.00
2018-08-03T00:57:20.789Z,20.90
2018-08-03T00:59:48.682Z,20.90
2018-08-03T01:02:16.466Z,20.90
2018-08-03T01:04:44.262Z,20.90
2018-08-03T01:07:12.192Z,20.90
2018-08-03T01:09:40.024Z,20.90
2018-08-03T01:12:07.851Z,20.90
2018-08-03T01:14:35.663Z,20.90
2018-08-03T01:17:03.496Z,20.90
2018-08-03T01:19:31.247Z,20.90
2018-08-03T01:21:59.141Z,20.90
2018-08-03T01:24:27.056Z,20.80
2018-08-03T01:26:54.859Z,20.80
2018-08-03T01:29:22.663Z,20.80
2018-08-03T01:31:50.490Z,20.80
2018-08-03T01:34:18.278Z,20.80
2018-08-03T01:36:46.103Z,20.80
2018-08-03T01:39:13.961Z,20.80
2018-08-03T01:41:41.883Z,20.70
2018-08-03T01:44:09.759Z,20.70
2018-08-03T01:46:37.555Z,20.70
2018-08-03T01:49:05.361Z,20.60
2018-08-03T01:51:33.172Z,20.60
2018-08-03T01:54:01.007Z,20.60
2018-08-03T01:56:28.822Z,20.60
2018-08-03T01:58:56.685Z,20.50
2018-08-03T02:01:24.508Z,20.50
2018-08-03T02:03:52.638Z,20.50
2018-08-03T02:06:20.503Z,20.50
2018-08-03T02:08:48.353Z,20.50
2018-08-03T02:11:16.259Z,20.60
2018-08-03T02:13:44.068Z,20.50
2018-08-03T02:16:11.901Z,20.60
2018-08-03T02:18:39.760Z,20.60
2018-08-03T02:21:07.568Z,20.60
2018-08-03T02:23:35.443Z,20.50
2018-08-03T02:26:03.278Z,20.50
2018-08-03T02:28:31.042Z,20.40
2018-08-03T02:30:58.959Z,20.40
2018-08-03T02:33:26.955Z,20.40
2018-08-03T02:35:54.931Z,20.40
2018-08-03T02:38:22.772Z,20.40
2018-08-03T02:40:50.668Z,20.40
2018-08-03T02:43:18.637Z,20.40
2018-08-03T02:48:14.556Z,20.30
2018-08-03T02:50:42.403Z,20.30
2018-08-03T02:53:10.269Z,20.30
2018-08-03T02:55:38.222Z,20.30
2018-08-03T02:58:06.126Z,20.30
2018-08-03T03:00:34.101Z,20.30
2018-08-03T03:03:01.994Z,20.30
2018-08-03T03:05:29.873Z,20.30
2018-08-03T03:07:57.717Z,20.30
2018-08-03T03:10:25.611Z,20.30
2018-08-03T03:12:53.523Z,20.30
2018-08-03T03:15:21.441Z,20.20
2018-08-03T03:17:49.310Z,20.20
2018-08-03T03:20:17.214Z,20.30
2018-08-03T03:22:45.067Z,20.30
2018-08-03T03:25:13.036Z,20.30
2018-08-03T03:27:40.935Z,20.30
2018-08-03T03:30:09.072Z,20.30
2018-08-03T03:32:37.010Z,20.20
2018-08-03T03:35:04.891Z,20.30
2018-08-03T03:37:32.815Z,20.20
2018-08-03T03:40:00.735Z,20.20
2018-08-03T03:42:28.623Z,20.20
2018-08-03T03:44:56.495Z,20.20
2018-08-03T03:47:24.365Z,20.20
2018-08-03T03:49:52.298Z,20.20
2018-08-03T03:52:20.129Z,20.20
2018-08-03T03:54:48.083Z,20.20
2018-08-03T03:57:15.908Z,20.30
2018-08-03T03:59:43.761Z,20.30
2018-08-03T04:04:39.446Z,20.40
2018-08-03T04:07:07.261Z,20.40
2018-08-03T04:09:35.094Z,20.50
2018-08-03T04:12:03.028Z,20.50
2018-08-03T04:14:30.918Z,20.60
2018-08-03T04:16:58.738Z,20.60
2018-08-03T04:19:26.533Z,20.80
2018-08-03T04:21:54.348Z,20.80
2018-08-03T04:24:22.169Z,20.90
2018-08-03T04:26:50.032Z,21.00
2018-08-03T04:29:17.895Z,21.10
2018-08-03T04:31:45.730Z,21.20
2018-08-03T04:34:13.555Z,21.30
2018-08-03T04:36:41.403Z,21.30
2018-08-03T04:39:09.239Z,21.40
2018-08-03T04:41:37.130Z,21.50
2018-08-03T04:44:04.910Z,21.60
2018-08-03T04:46:32.841Z,21.70
2018-08-03T04:49:00.640Z,21.70
2018-08-03T04:51:28.565Z,21.80
2018-08-03T04:53:56.503Z,21.90
2018-08-03T04:56:24.396Z,22.00
2018-08-03T04:58:52.882Z,22.20
2018-08-03T05:01:20.723Z,22.30
2018-08-03T05:03:48.511Z,22.50
2018-08-03T05:06:16.325Z,22.80
2018-08-03T05:08:44.262Z,23.00
2018-08-03T05:11:12.110Z,23.10
2018-08-03T05:13:39.920Z,23.30
2018-08-03T05:16:07.731Z,23.40
2018-08-03T05:18:35.548Z,23.50
2018-08-03T05:21:03.332Z,23.90
2018-08-03T05:23:31.134Z,24.10
2018-08-03T05:25:58.982Z,24.10
2018-08-03T05:28:26.884Z,24.20
2018-08-03T05:30:54.780Z,24.30
2018-08-03T05:33:22.514Z,24.20
2018-08-03T05:35:50.394Z,24.30
2018-08-03T05:38:18.221Z,24.50
2018-08-03T05:40:46.002Z,24.70
2018-08-03T05:45:41.638Z,24.50
2018-08-03T05:48:14.875Z,24.50
2018-08-03T05:50:42.747Z,24.60
2018-08-03T05:53:10.675Z,24.70
2018-08-03T05:55:38.562Z,24.60
2018-08-03T05:58:06.516Z,24.40
2018-08-03T06:00:34.363Z,24.40
2018-08-03T06:03:02.167Z,24.40
2018-08-03T06:05:30.114Z,24.40
2018-08-03T06:07:58.026Z,24.50
2018-08-03T06:10:25.895Z,24.80
2018-08-03T06:12:53.814Z,24.80
2018-08-03T06:15:21.603Z,24.80
2018-08-03T06:17:49.482Z,25.20
2018-08-03T06:20:17.327Z,25.40
2018-08-03T06:22:45.156Z,25.70
2018-08-03T06:25:13.016Z,26.30
2018-08-03T06:27:40.918Z,26.80
2018-08-03T06:30:10.361Z,27.20
2018-08-03T06:32:38.494Z,28.10
2018-08-03T06:35:06.674Z,28.40
2018-08-03T06:37:34.792Z,29.30
2018-08-03T06:40:02.792Z,29.80
2018-08-03T06:42:30.609Z,30.10
2018-08-03T06:44:58.493Z,30.10
2018-08-03T06:47:26.265Z,29.60
2018-08-03T06:49:54.142Z,28.80
2018-08-03T06:52:22.093Z,28.20
2018-08-03T06:54:50.191Z,28.30
2018-08-03T06:57:18.017Z,28.40
2018-08-03T06:59:45.979Z,28.20
2018-08-03T07:02:13.851Z,28.40
2018-08-03T07:04:41.748Z,29.30
2018-08-03T07:07:09.685Z,30.30
2018-08-03T07:09:37.677Z,31.20
2018-08-03T07:12:05.576Z,32.00
2018-08-03T07:14:33.511Z,32.50
2018-08-03T07:17:01.375Z,32.90
2018-08-03T07:19:29.324Z,33.20
2018-08-03T07:21:57.281Z,33.50
2018-08-03T07:24:25.235Z,33.60
2018-08-03T07:26:53.162Z,33.80
2018-08-03T07:29:21.043Z,33.90
2018-08-03T07:31:49.075Z,33.70
2018-08-03T07:34:17.035Z,33.60
2018-08-03T07:36:45.018Z,34.00
2018-08-03T07:39:12.979Z,34.20
2018-08-03T07:41:48.696Z,34.00
2018-08-03T07:44:43.980Z,33.70
2018-08-03T07:47:11.876Z,33.40
2018-08-03T07:49:39.779Z,32.60
2018-08-03T07:52:08.131Z,32.20
2018-08-03T07:57:42.396Z,31.80
2018-08-03T08:00:35.542Z,31.70
2018-08-03T08:03:03.411Z,31.60
2018-08-03T08:05:31.333Z,31.40
2018-08-03T08:07:59.273Z,31.50
2018-08-03T08:13:34.452Z,31.50
2018-08-03T08:16:02.457Z,31.40
2018-08-03T08:18:30.366Z,31.40
2018-08-03T08:20:58.335Z,31.30
2018-08-03T08:23:26.314Z,31.60
2018-08-03T08:26:04.081Z,32.20
2018-08-03T08:28:31.967Z,32.90
2018-08-03T08:30:59.871Z,33.60
2018-08-03T08:33:27.822Z,34.10
2018-08-03T08:36:07.914Z,34.60
2018-08-03T08:38:35.820Z,35.00
2018-08-03T08:41:03.737Z,35.50
2018-08-03T08:43:31.757Z,35.60
2018-08-03T08:45:59.686Z,35.80
2018-08-03T08:48:32.632Z,35.90
2018-08-03T08:51:00.522Z,36.20
2018-08-03T08:53:28.396Z,36.70
2018-08-03T08:55:56.239Z,37.10
2018-08-03T08:58:24.137Z,37.30
2018-08-03T09:00:52.141Z,37.50
2018-08-03T09:03:20.150Z,37.50
2018-08-03T09:05:48.046Z,37.30
2018-08-03T09:08:15.915Z,37.00
2018-08-03T09:10:43.837Z,37.20
2018-08-03T09:13:11.737Z,37.30
2018-08-03T09:15:39.569Z,37.10
2018-08-03T09:18:07.344Z,36.60
2018-08-03T09:20:35.278Z,36.30
2018-08-03T09:23:09.465Z,36.20
2018-08-03T09:25:37.290Z,36.10
2018-08-03T09:28:05.586Z,35.80
2018-08-03T09:30:41.431Z,35.80
2018-08-03T09:33:09.269Z,36.10
2018-08-03T09:38:05.202Z,36.40
2018-08-03T09:40:43.639Z,36.40
2018-08-03T09:43:12.002Z,36.60
2018-08-03T09:45:39.761Z,36.60
2018-08-03T09:48:07.520Z,36.70
2018-08-03T09:50:36.387Z,36.90
2018-08-03T09:53:04.235Z,37.20
2018-08-03T09:55:32.090Z,37.20
2018-08-03T09:57:59.957Z,37.10
2018-08-03T10:00:33.463Z,37.00
2018-08-03T10:03:01.238Z,37.00
2018-08-03T10:05:29.007Z,37.10
2018-08-03T10:07:56.903Z,37.50
2018-08-03T10:10:24.665Z,37.70
2018-08-03T10:12:52.589Z,37.90
2018-08-03T10:17:49.499Z,37.70
2018-08-03T10:20:17.511Z,37.80
2018-08-03T10:22:45.335Z,37.80
2018-08-03T10:25:13.118Z,38.00
2018-08-03T10:27:41.009Z,38.00
2018-08-03T10:30:08.879Z,38.00
2018-08-03T10:32:36.723Z,38.00
2018-08-03T10:35:05.376Z,38.00
2018-08-03T10:37:33.182Z,37.90
2018-08-03T10:40:00.977Z,38.20
2018-08-03T10:42:28.819Z,38.20
2018-08-03T10:44:56.637Z,38.20
2018-08-03T10:47:24.513Z,38.20
2018-08-03T10:49:52.520Z,38.30
2018-08-03T10:52:20.683Z,38.20
2018-08-03T10:54:48.760Z,38.20
2018-08-03T10:57:16.537Z,38.00
2018-08-03T10:59:44.406Z,37.90
2018-08-03T11:02:12.254Z,38.00
2018-08-03T11:04:40.277Z,38.00
2018-08-03T11:07:08.235Z,38.00
2018-08-03T11:09:36.059Z,38.00
2018-08-03T11:12:04.222Z,37.90
2018-08-03T11:14:32.051Z,37.80
2018-08-03T11:17:00.139Z,37.70
2018-08-03T11:19:27.872Z,37.80
2018-08-03T11:21:55.645Z,37.90
2018-08-03T11:24:23.429Z,37.90
2018-08-03T11:26:51.190Z,38.00
2018-08-03T11:29:19.003Z,38.20
2018-08-03T11:31:46.887Z,38.20
2018-08-03T11:34:14.754Z,38.40
2018-08-03T11:36:42.616Z,38.40
2018-08-03T11:39:11.246Z,38.40
2018-08-03T11:41:39.063Z,38.50
2018-08-03T11:44:07.195Z,38.60
2018-08-03T11:46:35.085Z,38.60
2018-08-03T11:49:02.957Z,38.60
2018-08-03T11:51:30.870Z,38.80
2018-08-03T11:53:58.702Z,39.00
2018-08-03T11:56:26.583Z,39.20
2018-08-03T11:58:54.360Z,39.30
2018-08-03T12:01:22.150Z,39.50
2018-08-03T12:03:49.936Z,39.50
2018-08-03T12:06:17.717Z,39.40
2018-08-03T12:08:45.580Z,39.00
2018-08-03T12:11:13.409Z,38.80
2018-08-03T12:13:41.302Z,39.20
2018-08-03T12:16:09.095Z,39.70
2018-08-03T12:18:36.880Z,40.10
2018-08-03T12:21:04.679Z,40.40
2018-08-03T12:23:32.514Z,39.80
2018-08-03T12:26:00.257Z,38.90
2018-08-03T12:28:36.622Z,38.10
2018-08-03T12:33:32.199Z,37.10
2018-08-03T12:36:00.092Z,36.90
2018-08-03T12:38:27.891Z,36.60
2018-08-03T12:40:55.690Z,36.40
2018-08-03T12:43:23.556Z,36.20
2018-08-03T12:45:51.390Z,36.20
2018-08-03T12:48:19.137Z,36.20
2018-08-03T12:50:46.980Z,36.70
2018-08-03T12:53:14.791Z,37.70
2018-08-03T12:55:42.578Z,38.80
2018-08-03T12:58:10.452Z,39.40
2018-08-03T13:00:38.295Z,39.80
2018-08-03T13:03:06.124Z,40.30
2018-08-03T13:05:33.939Z,40.70
2018-08-03T13:08:02.079Z,41.00
2018-08-03T13:10:29.730Z,41.00
2018-08-03T13:12:57.611Z,41.00
2018-08-03T13:15:25.392Z,40.80
2018-08-03T13:17:53.178Z,40.40
2018-08-03T13:20:20.976Z,39.70
2018-08-03T13:22:48.781Z,39.00
2018-08-03T13:25:16.611Z,38.90
2018-08-03T13:27:44.467Z,39.50
2018-08-03T13:30:12.215Z,40.00
2018-08-03T13:32:39.947Z,39.90
2018-08-03T13:35:07.696Z,40.10
2018-08-03T13:37:35.398Z,40.40
2018-08-03T13:40:03.132Z,40.80
2018-08-03T13:42:31.045Z,40.90
2018-08-03T13:44:58.894Z,41.20
2018-08-03T13:47:26.706Z,41.40
2018-08-03T13:49:54.516Z,41.60
2018-08-03T13:52:22.320Z,41.80
2018-08-03T13:54:50.181Z,41.90
2018-08-03T13:57:18.010Z,42.00
2018-08-03T13:59:45.943Z,42.10
2018-08-03T14:02:23.411Z,42.20
2018-08-03T14:04:51.423Z,42.20
2018-08-03T14:07:19.240Z,42.20
2018-08-03T14:09:47.117Z,42.20
2018-08-03T14:12:15.090Z,41.60
2018-08-03T14:14:42.866Z,41.00
2018-08-03T14:17:11.171Z,40.60
2018-08-03T14:19:39.700Z,40.00
2018-08-03T14:25:08.772Z,39.10
2018-08-03T14:27:36.601Z,39.40
2018-08-03T14:30:06.192Z,40.00
2018-08-03T14:35:01.824Z,41.20
2018-08-03T14:37:29.605Z,41.70
2018-08-03T14:39:57.367Z,42.00
2018-08-03T14:42:25.232Z,41.90
2018-08-03T14:44:53.037Z,41.10
2018-08-03T14:47:20.908Z,40.20
2018-08-03T14:49:48.761Z,39.30
2018-08-03T14:52:16.582Z,38.60
2018-08-03T14:54:44.444Z,38.00
2018-08-03T14:57:12.225Z,37.50
2018-08-03T14:59:40.083Z,37.20
2018-08-03T15:02:07.919Z,36.80
2018-08-03T15:04:35.708Z,36.50
2018-08-03T15:07:03.630Z,36.30
2018-08-03T15:09:31.542Z,36.00
2018-08-03T15:11:59.326Z,35.90
2018-08-03T15:14:27.155Z,35.90
2018-08-03T15:16:55.027Z,35.90
2018-08-03T15:19:22.894Z,36.30
2018-08-03T15:21:50.732Z,37.00
2018-08-03T15:24:18.616Z,37.60
2018-08-03T15:26:46.494Z,38.30
2018-08-03T15:29:14.335Z,38.90
2018-08-03T15:31:42.143Z,39.40
2018-08-03T15:34:09.954Z,39.60
2018-08-03T15:36:37.756Z,39.80
2018-08-03T15:39:08.623Z,40.00
2018-08-03T15:41:36.443Z,40.00
2018-08-03T15:44:04.232Z,40.10
2018-08-03T15:46:32.045Z,40.20
2018-08-03T15:48:59.883Z,40.10
2018-08-03T15:51:27.695Z,39.60
2018-08-03T15:53:55.587Z,39.00
2018-08-03T15:56:23.447Z,38.50
2018-08-03T15:58:51.271Z,38.10
2018-08-03T16:01:19.193Z,37.80
2018-08-03T16:03:47.065Z,37.80
2018-08-03T16:06:14.902Z,37.70
2018-08-03T16:08:42.734Z,37.80
2018-08-03T16:11:10.606Z,37.80
2018-08-03T16:13:38.557Z,37.80
2018-08-03T16:16:06.415Z,37.80
2018-08-03T16:18:34.299Z,37.80
2018-08-03T16:21:02.102Z,37.90
2018-08-03T16:23:29.987Z,37.80
2018-08-03T16:25:57.907Z,37.70
2018-08-03T16:28:25.798Z,37.60
2018-08-03T16:30:53.677Z,37.50
2018-08-03T16:33:21.545Z,37.50
2018-08-03T16:35:49.446Z,37.50
2018-08-03T16:38:17.315Z,37.50
2018-08-03T16:40:45.161Z,37.50
2018-08-03T16:43:13.018Z,37.40
2018-08-03T16:45:40.798Z,37.30
2018-08-03T16:48:08.551Z,37.20
2018-08-03T16:50:40.620Z,37.10
2018-08-03T16:53:08.556Z,37.10
2018-08-03T16:55:36.428Z,36.80
2018-08-03T16:58:04.323Z,36.60
2018-08-03T17:00:32.161Z,36.40
2018-08-03T17:03:00.083Z,36.20
2018-08-03T17:05:27.953Z,35.90
2018-08-03T17:07:55.834Z,35.80
2018-08-03T17:10:23.768Z,35.70
2018-08-03T17:12:51.633Z,35.50
2018-08-03T17:15:19.491Z,35.40
2018-08-03T17:17:47.406Z,35.30
2018-08-03T17:20:15.290Z,35.20
2018-08-03T17:22:43.169Z,35.00
2018-08-03T17:25:11.037Z,34.90
2018-08-03T17:27:38.962Z,34.70
2018-08-03T17:30:06.832Z,34.60
2018-08-03T17:32:34.744Z,34.50
2018-08-03T17:35:02.631Z,34.30
2018-08-03T17:37:30.495Z,34.20
2018-08-03T17:39:58.387Z,34.10
2018-08-03T17:42:26.289Z,33.90
2018-08-03T17:44:54.206Z,33.70
2018-08-03T17:47:22.099Z,33.50
2018-08-03T17:49:50.027Z,33.40
2018-08-03T17:52:17.894Z,33.30
2018-08-03T17:54:45.721Z,33.30
2018-08-03T17:57:13.554Z,33.10
2018-08-03T17:59:41.383Z,33.10
2018-08-03T18:02:09.232Z,32.90
2018-08-03T18:04:37.021Z,32.80
2018-08-03T18:07:04.822Z,32.70
2018-08-03T18:09:32.582Z,32.50
2018-08-03T18:12:00.440Z,32.30
2018-08-03T18:14:28.259Z,32.10
2018-08-03T18:16:56.120Z,31.90
2018-08-03T18:19:23.970Z,31.70
2018-08-03T18:21:51.859Z,31.50
2018-08-03T18:24:19.637Z,31.30
2018-08-03T18:26:47.559Z,31.10
2018-08-03T18:29:15.480Z,31.00
2018-08-03T18:31:43.211Z,30.90
2018-08-03T18:34:11.057Z,30.70
2018-08-03T18:36:38.863Z,30.70
2018-08-03T18:39:08.418Z,30.60
2018-08-03T18:41:36.479Z,30.40
2018-08-03T18:44:04.247Z,30.30
2018-08-03T18:46:32.070Z,30.10
2018-08-03T18:48:59.847Z,30.00
2018-08-03T18:51:27.709Z,29.90
2018-08-03T18:53:55.480Z,29.70
2018-08-03T18:56:23.319Z,29.60
2018-08-03T18:58:51.153Z,29.40
2018-08-03T19:01:18.944Z,29.30
2018-08-03T19:03:46.753Z,29.20
2018-08-03T19:06:14.523Z,29.20
2018-08-03T19:08:42.374Z,29.20
2018-08-03T19:11:10.195Z,29.10
2018-08-03T19:13:38.052Z,29.00
2018-08-03T19:16:05.943Z,28.90
2018-08-03T19:18:34.178Z,28.80
2018-08-03T19:21:01.973Z,28.80
2018-08-03T19:23:29.761Z,28.70
2018-08-03T19:25:57.628Z,28.60
2018-08-03T19:28:25.471Z,28.50
2018-08-03T19:30:53.337Z,28.30
2018-08-03T19:33:21.217Z,28.30
2018-08-03T19:35:49.066Z,28.10
2018-08-03T19:38:16.960Z,27.90
2018-08-03T19:40:44.847Z,27.80
2018-08-03T19:43:12.680Z,27.70
2018-08-03T19:45:40.580Z,27.60
2018-08-03T19:48:08.434Z,27.50
2018-08-03T19:50:36.192Z,27.40
2018-08-03T19:53:04.129Z,27.40
2018-08-03T19:55:32.022Z,27.30
2018-08-03T19:58:03.804Z,27.30
2018-08-03T20:00:31.652Z,27.20
2018-08-03T20:02:59.535Z,27.10
2018-08-03T20:05:27.465Z,26.90
2018-08-03T20:07:55.263Z,26.80
2018-08-03T20:10:34.990Z,26.70
2018-08-03T20:13:02.835Z,26.60
2018-08-03T20:15:30.728Z,26.40
2018-08-03T20:18:01.327Z,26.40
2018-08-03T20:20:29.272Z,26.30
2018-08-03T20:22:57.083Z,26.20
2018-08-03T20:27:52.773Z,26.00
2018-08-03T20:30:20.621Z,25.80
2018-08-03T20:32:50.671Z,25.70
2018-08-03T20:35:18.853Z,25.60
2018-08-03T20:37:46.783Z,25.50
2018-08-03T20:40:14.601Z,25.50
2018-08-03T20:42:42.427Z,25.40
2018-08-03T20:45:10.347Z,25.50
2018-08-03T20:47:38.348Z,25.50
2018-08-03T20:50:06.193Z,25.50
2018-08-03T20:52:34.125Z,25.50
2018-08-03T20:55:02.085Z,25.60
2018-08-03T20:57:29.936Z,25.50
2018-08-03T20:59:57.783Z,25.50
2018-08-03T21:02:25.615Z,25.50
2018-08-03T21:04:53.482Z,25.40
2018-08-03T21:07:21.356Z,25.40
2018-08-03T21:09:49.310Z,25.50
2018-08-03T21:12:17.198Z,25.50
2018-08-03T21:14:45.083Z,25.50
2018-08-03T21:17:12.968Z,25.50
2018-08-03T21:19:40.873Z,25.60
2018-08-03T21:22:08.825Z,25.60
2018-08-03T21:24:36.657Z,25.70
2018-08-03T21:27:04.875Z,25.70
2018-08-03T21:29:39.257Z,25.60
2018-08-03T21:32:07.216Z,25.50
2018-08-03T21:41:00.359Z,25.00
2018-08-03T21:43:28.201Z,24.80
2018-08-03T21:46:08.762Z,24.60
2018-08-03T21:48:36.666Z,24.50
2018-08-03T21:51:04.671Z,24.40
2018-08-03T21:53:35.849Z,24.40
2018-08-03T21:56:03.695Z,24.20
2018-08-03T21:58:31.568Z,24.10
2018-08-03T22:03:27.291Z,24.00
2018-08-03T22:05:55.166Z,23.90
2018-08-03T22:22:23.825Z,23.50
2018-08-03T22:24:52.410Z,23.50
2018-08-03T22:27:20.313Z,23.50
2018-08-03T22:29:48.219Z,23.50
2018-08-03T22:32:16.047Z,23.50
2018-08-03T22:34:43.777Z,23.50
2018-08-03T22:37:11.610Z,23.50
2018-08-03T22:39:39.490Z,23.50
2018-08-03T22:42:07.370Z,23.40
2018-08-03T22:44:35.212Z,23.40
2018-08-03T22:47:03.107Z,23.30
2018-08-03T22:49:30.990Z,23.30
2018-08-03T22:51:58.890Z,23.30
2018-08-03T22:54:26.706Z,23.20
2018-08-03T22:56:54.610Z,23.10
2018-08-03T22:59:22.519Z,23.10
2018-08-03T23:01:50.335Z,23.00
2018-08-03T23:04:18.104Z,23.00
2018-08-03T23:06:45.918Z,23.00
2018-08-03T23:09:13.844Z,23.00
2018-08-03T23:11:41.825Z,23.00
2018-08-03T23:14:09.725Z,23.00
2018-08-03T23:16:37.622Z,23.00
2018-08-03T23:19:05.514Z,23.00
2018-08-03T23:21:33.325Z,22.90
2018-08-03T23:24:01.156Z,22.90
2018-08-03T23:26:29.086Z,22.90
2018-08-03T23:28:56.952Z,22.90
2018-08-03T23:31:24.961Z,22.90
2018-08-03T23:33:52.826Z,22.90
2018-08-03T23:38:48.599Z,23.00
2018-08-03T23:41:16.502Z,22.90
2018-08-03T23:43:44.359Z,22.90
2018-08-03T23:46:13.040Z,22.90
2018-08-03T23:48:40.907Z,22.90
2018-08-03T23:51:08.751Z,22.90
2018-08-03T23:53:36.704Z,22.80
2018-08-03T23:56:04.535Z,22.80
2018-08-03T23:58:32.495Z,22.80
